sensor_id;sensor_type;location;lat;lon;timestamp;P1;durP1;ratioP1;P2;durP2;ratioP2
10430;SDS011;5262;59.958;17.726;2022-12-20T00:00:54;31.63;;;14.70;;
10430;SDS011;5262;59.958;17.726;2022-12-20T00:03:20;47.00;;;14.07;;
10430;SDS011;5262;59.958;17.726;2022-12-20T00:05:46;28.73;;;13.77;;
10430;SDS011;5262;59.958;17.726;2022-12-20T00:08:12;30.03;;;14.67;;
10430;SDS011;5262;59.958;17.726;2022-12-20T00:10:39;31.10;;;13.67;;
10430;SDS011;5262;59.958;17.726;2022-12-20T00:13:07;25.03;;;13.53;;
10430;SDS011;5262;59.958;17.726;2022-12-20T00:15:33;25.83;;;12.53;;
10430;SDS011;5262;59.958;17.726;2022-12-20T00:17:59;24.57;;;13.13;;
10430;SDS011;5262;59.958;17.726;2022-12-20T00:20:25;25.40;;;12.27;;
10430;SDS011;5262;59.958;17.726;2022-12-20T00:22:51;25.60;;;12.23;;
10430;SDS011;5262;59.958;17.726;2022-12-20T00:25:17;25.87;;;12.67;;
10430;SDS011;5262;59.958;17.726;2022-12-20T00:27:45;28.70;;;13.43;;
10430;SDS011;5262;59.958;17.726;2022-12-20T00:30:11;21.07;;;11.80;;
10430;SDS011;5262;59.958;17.726;2022-12-20T00:32:38;23.97;;;11.63;;
10430;SDS011;5262;59.958;17.726;2022-12-20T00:35:04;24.20;;;12.07;;
10430;SDS011;5262;59.958;17.726;2022-12-20T00:37:30;21.03;;;11.63;;
10430;SDS011;5262;59.958;17.726;2022-12-20T00:39:55;19.67;;;10.63;;
10430;SDS011;5262;59.958;17.726;2022-12-20T00:42:21;17.53;;;10.53;;
10430;SDS011;5262;59.958;17.726;2022-12-20T00:44:47;20.20;;;10.27;;
10430;SDS011;5262;59.958;17.726;2022-12-20T00:47:13;18.33;;;10.30;;
10430;SDS011;5262;59.958;17.726;2022-12-20T00:49:38;16.17;;;9.33;;
10430;SDS011;5262;59.958;17.726;2022-12-20T00:52:04;17.00;;;9.67;;
10430;SDS011;5262;59.958;17.726;2022-12-20T00:54:30;16.90;;;9.63;;
10430;SDS011;5262;59.958;17.726;2022-12-20T00:56:56;18.63;;;9.63;;
10430;SDS011;5262;59.958;17.726;2022-12-20T00:59:21;15.03;;;9.50;;
10430;SDS011;5262;59.958;17.726;2022-12-20T01:01:47;14.77;;;8.30;;
10430;SDS011;5262;59.958;17.726;2022-12-20T01:04:12;15.57;;;9.27;;
10430;SDS011;5262;59.958;17.726;2022-12-20T01:06:38;16.13;;;9.67;;
10430;SDS011;5262;59.958;17.726;2022-12-20T01:09:04;15.70;;;9.20;;
10430;SDS011;5262;59.958;17.726;2022-12-20T01:11:34;17.13;;;8.70;;
10430;SDS011;5262;59.958;17.726;2022-12-20T01:14:04;14.77;;;8.43;;
10430;SDS011;5262;59.958;17.726;2022-12-20T01:16:43;15.70;;;8.87;;
10430;SDS011;5262;59.958;17.726;2022-12-20T01:19:10;15.20;;;9.27;;
10430;SDS011;5262;59.958;17.726;2022-12-20T01:21:38;13.43;;;8.80;;
10430;SDS011;5262;59.958;17.726;2022-12-20T01:24:08;15.83;;;8.63;;
10430;SDS011;5262;59.958;17.726;2022-12-20T01:26:35;14.90;;;8.47;;
10430;SDS011;5262;59.958;17.726;2022-12-20T01:29:00;13.47;;;8.10;;
10430;SDS011;5262;59.958;17.726;2022-12-20T01:31:26;11.50;;;8.13;;
10430;SDS011;5262;59.958;17.726;2022-12-20T01:33:53;12.27;;;7.53;;
10430;SDS011;5262;59.958;17.726;2022-12-20T01:36:20;13.60;;;7.60;;
10430;SDS011;5262;59.958;17.726;2022-12-20T01:38:57;12.00;;;7.83;;
10430;SDS011;5262;59.958;17.726;2022-12-20T01:41:25;14.47;;;8.73;;
10430;SDS011;5262;59.958;17.726;2022-12-20T01:46:23;13.87;;;8.87;;
10430;SDS011;5262;59.958;17.726;2022-12-20T01:48:54;13.53;;;9.03;;
10430;SDS011;5262;59.958;17.726;2022-12-20T01:51:23;12.57;;;8.13;;
10430;SDS011;5262;59.958;17.726;2022-12-20T01:53:52;11.93;;;8.57;;
10430;SDS011;5262;59.958;17.726;2022-12-20T01:56:22;14.50;;;9.27;;
10430;SDS011;5262;59.958;17.726;2022-12-20T01:58:48;12.03;;;8.80;;
10430;SDS011;5262;59.958;17.726;2022-12-20T02:01:17;14.07;;;9.00;;
10430;SDS011;5262;59.958;17.726;2022-12-20T02:03:42;12.67;;;8.63;;
10430;SDS011;5262;59.958;17.726;2022-12-20T02:06:19;18.60;;;9.07;;
10430;SDS011;5262;59.958;17.726;2022-12-20T02:08:48;14.60;;;8.50;;
10430;SDS011;5262;59.958;17.726;2022-12-20T02:16:25;14.40;;;8.63;;
10430;SDS011;5262;59.958;17.726;2022-12-20T02:27:40;13.87;;;8.87;;
10430;SDS011;5262;59.958;17.726;2022-12-20T02:30:33;14.07;;;8.97;;
10430;SDS011;5262;59.958;17.726;2022-12-20T02:33:02;13.67;;;9.43;;
10430;SDS011;5262;59.958;17.726;2022-12-20T02:35:32;16.80;;;9.87;;
10430;SDS011;5262;59.958;17.726;2022-12-20T02:38:01;12.57;;;9.30;;
10430;SDS011;5262;59.958;17.726;2022-12-20T02:40:45;15.53;;;9.20;;
10430;SDS011;5262;59.958;17.726;2022-12-20T02:43:11;13.30;;;9.27;;
10430;SDS011;5262;59.958;17.726;2022-12-20T02:45:56;16.47;;;10.10;;
10430;SDS011;5262;59.958;17.726;2022-12-20T02:48:24;16.50;;;10.10;;
10430;SDS011;5262;59.958;17.726;2022-12-20T02:50:54;15.27;;;9.97;;
10430;SDS011;5262;59.958;17.726;2022-12-20T02:53:22;14.50;;;10.03;;
10430;SDS011;5262;59.958;17.726;2022-12-20T02:55:53;15.07;;;10.00;;
10430;SDS011;5262;59.958;17.726;2022-12-20T03:00:52;13.03;;;9.30;;
10430;SDS011;5262;59.958;17.726;2022-12-20T03:03:21;15.67;;;10.33;;
10430;SDS011;5262;59.958;17.726;2022-12-20T03:05:47;13.87;;;9.70;;
10430;SDS011;5262;59.958;17.726;2022-12-20T03:08:16;19.70;;;10.87;;
10430;SDS011;5262;59.958;17.726;2022-12-20T03:10:42;16.57;;;10.40;;
10430;SDS011;5262;59.958;17.726;2022-12-20T03:13:08;15.60;;;10.43;;
10430;SDS011;5262;59.958;17.726;2022-12-20T03:15:34;18.40;;;11.73;;
10430;SDS011;5262;59.958;17.726;2022-12-20T03:17:59;16.40;;;11.17;;
10430;SDS011;5262;59.958;17.726;2022-12-20T03:20:25;16.47;;;10.33;;
10430;SDS011;5262;59.958;17.726;2022-12-20T03:22:51;17.30;;;10.53;;
10430;SDS011;5262;59.958;17.726;2022-12-20T03:25:17;14.80;;;10.33;;
10430;SDS011;5262;59.958;17.726;2022-12-20T03:27:43;15.13;;;10.40;;
10430;SDS011;5262;59.958;17.726;2022-12-20T03:30:09;17.83;;;11.17;;
10430;SDS011;5262;59.958;17.726;2022-12-20T03:32:35;18.43;;;10.50;;
10430;SDS011;5262;59.958;17.726;2022-12-20T03:35:01;18.90;;;10.77;;
10430;SDS011;5262;59.958;17.726;2022-12-20T03:37:26;15.73;;;10.20;;
10430;SDS011;5262;59.958;17.726;2022-12-20T03:39:52;16.20;;;10.63;;
10430;SDS011;5262;59.958;17.726;2022-12-20T03:42:17;15.43;;;10.70;;
10430;SDS011;5262;59.958;17.726;2022-12-20T03:44:43;17.83;;;10.83;;
10430;SDS011;5262;59.958;17.726;2022-12-20T03:47:09;16.30;;;11.20;;
10430;SDS011;5262;59.958;17.726;2022-12-20T03:49:34;17.37;;;10.57;;
10430;SDS011;5262;59.958;17.726;2022-12-20T03:52:00;15.80;;;10.73;;
10430;SDS011;5262;59.958;17.726;2022-12-20T03:54:26;17.93;;;11.03;;
10430;SDS011;5262;59.958;17.726;2022-12-20T03:56:51;17.73;;;10.73;;
10430;SDS011;5262;59.958;17.726;2022-12-20T03:59:17;15.37;;;10.90;;
10430;SDS011;5262;59.958;17.726;2022-12-20T04:01:43;15.03;;;10.93;;
10430;SDS011;5262;59.958;17.726;2022-12-20T04:04:09;16.13;;;11.33;;
10430;SDS011;5262;59.958;17.726;2022-12-20T04:06:36;15.63;;;10.60;;
10430;SDS011;5262;59.958;17.726;2022-12-20T04:09:02;17.53;;;11.17;;
10430;SDS011;5262;59.958;17.726;2022-12-20T04:11:28;15.47;;;11.03;;
10430;SDS011;5262;59.958;17.726;2022-12-20T04:13:53;15.97;;;11.40;;
10430;SDS011;5262;59.958;17.726;2022-12-20T04:16:22;16.57;;;10.37;;
10430;SDS011;5262;59.958;17.726;2022-12-20T04:18:49;19.93;;;11.97;;
10430;SDS011;5262;59.958;17.726;2022-12-20T04:21:18;18.50;;;11.67;;
10430;SDS011;5262;59.958;17.726;2022-12-20T04:23:50;16.67;;;11.60;;
10430;SDS011;5262;59.958;17.726;2022-12-20T04:26:15;17.97;;;11.17;;
10430;SDS011;5262;59.958;17.726;2022-12-20T04:28:41;17.97;;;11.97;;
10430;SDS011;5262;59.958;17.726;2022-12-20T04:31:07;19.33;;;11.13;;
10430;SDS011;5262;59.958;17.726;2022-12-20T04:33:33;18.13;;;11.03;;
10430;SDS011;5262;59.958;17.726;2022-12-20T04:35:58;18.70;;;11.13;;
10430;SDS011;5262;59.958;17.726;2022-12-20T04:38:24;14.73;;;10.57;;
10430;SDS011;5262;59.958;17.726;2022-12-20T04:40:50;15.87;;;10.30;;
10430;SDS011;5262;59.958;17.726;2022-12-20T04:43:18;17.77;;;10.33;;
10430;SDS011;5262;59.958;17.726;2022-12-20T04:45:46;16.43;;;10.40;;
10430;SDS011;5262;59.958;17.726;2022-12-20T04:48:12;16.17;;;10.73;;
10430;SDS011;5262;59.958;17.726;2022-12-20T04:50:38;15.23;;;9.80;;
10430;SDS011;5262;59.958;17.726;2022-12-20T04:53:03;12.67;;;9.60;;
10430;SDS011;5262;59.958;17.726;2022-12-20T04:55:48;16.40;;;10.27;;
10430;SDS011;5262;59.958;17.726;2022-12-20T04:58:13;13.83;;;9.83;;
10430;SDS011;5262;59.958;17.726;2022-12-20T05:00:39;13.63;;;9.63;;
10430;SDS011;5262;59.958;17.726;2022-12-20T05:03:05;14.47;;;10.37;;
10430;SDS011;5262;59.958;17.726;2022-12-20T05:05:30;14.70;;;9.90;;
10430;SDS011;5262;59.958;17.726;2022-12-20T05:07:56;14.63;;;10.13;;
10430;SDS011;5262;59.958;17.726;2022-12-20T05:10:22;11.87;;;8.97;;
10430;SDS011;5262;59.958;17.726;2022-12-20T05:12:47;11.13;;;8.30;;
10430;SDS011;5262;59.958;17.726;2022-12-20T05:15:13;14.97;;;10.67;;
10430;SDS011;5262;59.958;17.726;2022-12-20T05:17:39;13.27;;;9.27;;
10430;SDS011;5262;59.958;17.726;2022-12-20T05:20:05;13.33;;;9.57;;
10430;SDS011;5262;59.958;17.726;2022-12-20T05:22:31;12.10;;;9.23;;
10430;SDS011;5262;59.958;17.726;2022-12-20T05:25:16;15.17;;;8.77;;
10430;SDS011;5262;59.958;17.726;2022-12-20T05:28:00;14.63;;;9.27;;
10430;SDS011;5262;59.958;17.726;2022-12-20T05:30:26;11.53;;;9.17;;
10430;SDS011;5262;59.958;17.726;2022-12-20T05:32:52;13.50;;;9.07;;
10430;SDS011;5262;59.958;17.726;2022-12-20T05:35:18;12.63;;;9.20;;
10430;SDS011;5262;59.958;17.726;2022-12-20T05:37:43;13.80;;;9.23;;
10430;SDS011;5262;59.958;17.726;2022-12-20T05:40:09;12.80;;;8.97;;
10430;SDS011;5262;59.958;17.726;2022-12-20T05:42:35;15.63;;;10.17;;
10430;SDS011;5262;59.958;17.726;2022-12-20T05:45:01;14.43;;;9.67;;
10430;SDS011;5262;59.958;17.726;2022-12-20T05:47:28;15.17;;;9.80;;
10430;SDS011;5262;59.958;17.726;2022-12-20T05:49:57;13.70;;;9.97;;
10430;SDS011;5262;59.958;17.726;2022-12-20T05:52:24;13.53;;;9.57;;
10430;SDS011;5262;59.958;17.726;2022-12-20T05:54:50;13.67;;;9.50;;
10430;SDS011;5262;59.958;17.726;2022-12-20T05:57:16;12.37;;;9.23;;
10430;SDS011;5262;59.958;17.726;2022-12-20T05:59:42;14.57;;;9.87;;
10430;SDS011;5262;59.958;17.726;2022-12-20T06:02:07;13.07;;;8.87;;
10430;SDS011;5262;59.958;17.726;2022-12-20T06:04:35;13.20;;;9.10;;
10430;SDS011;5262;59.958;17.726;2022-12-20T06:07:01;12.20;;;8.83;;
10430;SDS011;5262;59.958;17.726;2022-12-20T06:09:26;13.90;;;9.53;;
10430;SDS011;5262;59.958;17.726;2022-12-20T06:11:52;13.70;;;10.17;;
10430;SDS011;5262;59.958;17.726;2022-12-20T06:14:18;13.80;;;9.33;;
10430;SDS011;5262;59.958;17.726;2022-12-20T06:16:43;14.37;;;8.67;;
10430;SDS011;5262;59.958;17.726;2022-12-20T06:19:09;12.70;;;9.37;;
10430;SDS011;5262;59.958;17.726;2022-12-20T06:21:35;12.30;;;8.20;;
10430;SDS011;5262;59.958;17.726;2022-12-20T06:24:00;11.73;;;8.80;;
10430;SDS011;5262;59.958;17.726;2022-12-20T06:26:26;12.87;;;8.07;;
10430;SDS011;5262;59.958;17.726;2022-12-20T06:28:52;12.23;;;8.20;;
10430;SDS011;5262;59.958;17.726;2022-12-20T06:31:20;12.17;;;8.37;;
10430;SDS011;5262;59.958;17.726;2022-12-20T06:33:46;12.63;;;8.87;;
10430;SDS011;5262;59.958;17.726;2022-12-20T06:36:12;11.97;;;8.53;;
10430;SDS011;5262;59.958;17.726;2022-12-20T06:38:37;13.77;;;9.07;;
10430;SDS011;5262;59.958;17.726;2022-12-20T06:41:03;12.13;;;8.67;;
10430;SDS011;5262;59.958;17.726;2022-12-20T06:43:29;11.97;;;8.67;;
10430;SDS011;5262;59.958;17.726;2022-12-20T06:45:54;13.27;;;8.53;;
10430;SDS011;5262;59.958;17.726;2022-12-20T06:48:20;14.63;;;9.63;;
10430;SDS011;5262;59.958;17.726;2022-12-20T06:50:48;13.17;;;8.83;;
10430;SDS011;5262;59.958;17.726;2022-12-20T06:53:14;12.57;;;8.93;;
10430;SDS011;5262;59.958;17.726;2022-12-20T06:55:40;13.93;;;9.07;;
10430;SDS011;5262;59.958;17.726;2022-12-20T06:58:06;12.70;;;8.93;;
10430;SDS011;5262;59.958;17.726;2022-12-20T07:00:31;12.33;;;9.33;;
10430;SDS011;5262;59.958;17.726;2022-12-20T07:02:57;14.27;;;9.20;;
10430;SDS011;5262;59.958;17.726;2022-12-20T07:05:23;13.90;;;9.30;;
10430;SDS011;5262;59.958;17.726;2022-12-20T07:07:49;14.30;;;9.93;;
10430;SDS011;5262;59.958;17.726;2022-12-20T07:10:15;14.60;;;9.70;;
10430;SDS011;5262;59.958;17.726;2022-12-20T07:12:42;14.43;;;9.33;;
10430;SDS011;5262;59.958;17.726;2022-12-20T07:15:08;17.87;;;10.90;;
10430;SDS011;5262;59.958;17.726;2022-12-20T07:17:34;15.03;;;10.03;;
10430;SDS011;5262;59.958;17.726;2022-12-20T07:19:59;17.07;;;10.53;;
10430;SDS011;5262;59.958;17.726;2022-12-20T07:22:25;14.20;;;9.63;;
10430;SDS011;5262;59.958;17.726;2022-12-20T07:24:51;16.53;;;10.23;;
10430;SDS011;5262;59.958;17.726;2022-12-20T07:27:17;14.63;;;9.67;;
10430;SDS011;5262;59.958;17.726;2022-12-20T07:29:42;14.77;;;10.47;;
10430;SDS011;5262;59.958;17.726;2022-12-20T07:32:09;15.27;;;10.13;;
10430;SDS011;5262;59.958;17.726;2022-12-20T07:34:36;16.73;;;9.97;;
10430;SDS011;5262;59.958;17.726;2022-12-20T07:37:02;16.17;;;10.30;;
10430;SDS011;5262;59.958;17.726;2022-12-20T07:39:28;20.50;;;10.00;;
10430;SDS011;5262;59.958;17.726;2022-12-20T07:41:53;14.33;;;9.07;;
10430;SDS011;5262;59.958;17.726;2022-12-20T07:44:20;14.70;;;9.90;;
10430;SDS011;5262;59.958;17.726;2022-12-20T07:46:46;12.63;;;8.17;;
10430;SDS011;5262;59.958;17.726;2022-12-20T07:49:12;16.10;;;9.87;;
10430;SDS011;5262;59.958;17.726;2022-12-20T07:51:42;16.50;;;9.93;;
10430;SDS011;5262;59.958;17.726;2022-12-20T07:54:12;16.20;;;10.23;;
10430;SDS011;5262;59.958;17.726;2022-12-20T07:56:44;13.40;;;9.37;;
10430;SDS011;5262;59.958;17.726;2022-12-20T07:59:12;14.13;;;9.27;;
10430;SDS011;5262;59.958;17.726;2022-12-20T08:01:40;12.00;;;9.37;;
10430;SDS011;5262;59.958;17.726;2022-12-20T08:04:10;14.33;;;9.47;;
10430;SDS011;5262;59.958;17.726;2022-12-20T08:06:39;14.97;;;9.40;;
10430;SDS011;5262;59.958;17.726;2022-12-20T08:09:06;14.17;;;9.10;;
10430;SDS011;5262;59.958;17.726;2022-12-20T08:11:34;15.40;;;10.43;;
10430;SDS011;5262;59.958;17.726;2022-12-20T08:14:01;15.33;;;10.07;;
10430;SDS011;5262;59.958;17.726;2022-12-20T08:16:28;15.97;;;10.00;;
10430;SDS011;5262;59.958;17.726;2022-12-20T08:18:55;13.90;;;9.67;;
10430;SDS011;5262;59.958;17.726;2022-12-20T08:21:21;13.93;;;9.87;;
10430;SDS011;5262;59.958;17.726;2022-12-20T08:23:46;13.30;;;9.67;;
10430;SDS011;5262;59.958;17.726;2022-12-20T08:26:12;15.67;;;10.23;;
10430;SDS011;5262;59.958;17.726;2022-12-20T08:28:39;14.33;;;9.77;;
10430;SDS011;5262;59.958;17.726;2022-12-20T08:31:06;16.70;;;12.40;;
10430;SDS011;5262;59.958;17.726;2022-12-20T08:33:33;13.47;;;9.70;;
10430;SDS011;5262;59.958;17.726;2022-12-20T08:36:01;13.93;;;9.07;;
10430;SDS011;5262;59.958;17.726;2022-12-20T08:38:29;12.83;;;9.20;;
10430;SDS011;5262;59.958;17.726;2022-12-20T08:41:00;15.27;;;9.73;;
10430;SDS011;5262;59.958;17.726;2022-12-20T08:43:27;13.50;;;10.17;;
10430;SDS011;5262;59.958;17.726;2022-12-20T08:45:53;13.90;;;10.30;;
10430;SDS011;5262;59.958;17.726;2022-12-20T08:48:20;16.70;;;9.83;;
10430;SDS011;5262;59.958;17.726;2022-12-20T08:50:46;15.43;;;10.27;;
10430;SDS011;5262;59.958;17.726;2022-12-20T08:53:12;18.23;;;10.53;;
10430;SDS011;5262;59.958;17.726;2022-12-20T08:55:38;15.70;;;10.93;;
10430;SDS011;5262;59.958;17.726;2022-12-20T08:58:04;17.93;;;11.30;;
10430;SDS011;5262;59.958;17.726;2022-12-20T09:00:30;19.17;;;11.13;;
10430;SDS011;5262;59.958;17.726;2022-12-20T09:02:55;19.37;;;12.33;;
10430;SDS011;5262;59.958;17.726;2022-12-20T09:05:21;17.60;;;10.47;;
10430;SDS011;5262;59.958;17.726;2022-12-20T09:07:46;16.37;;;10.27;;
10430;SDS011;5262;59.958;17.726;2022-12-20T09:10:12;15.33;;;10.03;;
10430;SDS011;5262;59.958;17.726;2022-12-20T09:12:38;17.67;;;10.77;;
10430;SDS011;5262;59.958;17.726;2022-12-20T09:15:04;16.07;;;10.53;;
10430;SDS011;5262;59.958;17.726;2022-12-20T09:17:30;14.07;;;9.73;;
10430;SDS011;5262;59.958;17.726;2022-12-20T09:19:56;14.07;;;10.30;;
10430;SDS011;5262;59.958;17.726;2022-12-20T09:22:21;14.33;;;9.73;;
10430;SDS011;5262;59.958;17.726;2022-12-20T09:24:47;16.73;;;11.03;;
10430;SDS011;5262;59.958;17.726;2022-12-20T09:27:13;14.03;;;9.83;;
10430;SDS011;5262;59.958;17.726;2022-12-20T09:29:39;13.30;;;9.60;;
10430;SDS011;5262;59.958;17.726;2022-12-20T09:32:04;13.73;;;8.93;;
10430;SDS011;5262;59.958;17.726;2022-12-20T09:34:30;13.40;;;9.33;;
10430;SDS011;5262;59.958;17.726;2022-12-20T09:36:56;13.37;;;9.47;;
10430;SDS011;5262;59.958;17.726;2022-12-20T09:39:22;12.03;;;9.10;;
10430;SDS011;5262;59.958;17.726;2022-12-20T09:41:47;13.53;;;9.40;;
10430;SDS011;5262;59.958;17.726;2022-12-20T09:44:26;12.47;;;9.13;;
10430;SDS011;5262;59.958;17.726;2022-12-20T09:46:57;13.67;;;9.10;;
10430;SDS011;5262;59.958;17.726;2022-12-20T09:49:43;13.90;;;9.50;;
10430;SDS011;5262;59.958;17.726;2022-12-20T10:00:46;13.77;;;9.23;;
10430;SDS011;5262;59.958;17.726;2022-12-20T10:03:29;12.17;;;8.90;;
10430;SDS011;5262;59.958;17.726;2022-12-20T10:05:57;12.27;;;8.97;;
10430;SDS011;5262;59.958;17.726;2022-12-20T10:08:43;13.73;;;9.10;;
10430;SDS011;5262;59.958;17.726;2022-12-20T10:16:49;15.73;;;8.87;;
10430;SDS011;5262;59.958;17.726;2022-12-20T10:19:43;13.77;;;9.50;;
10430;SDS011;5262;59.958;17.726;2022-12-20T10:22:57;14.40;;;9.53;;
10430;SDS011;5262;59.958;17.726;2022-12-20T10:25:38;12.93;;;8.70;;
10430;SDS011;5262;59.958;17.726;2022-12-20T10:28:10;10.50;;;8.30;;
10430;SDS011;5262;59.958;17.726;2022-12-20T10:30:39;12.43;;;8.90;;
10430;SDS011;5262;59.958;17.726;2022-12-20T10:33:07;14.27;;;9.17;;
10430;SDS011;5262;59.958;17.726;2022-12-20T10:35:46;11.73;;;7.53;;
10430;SDS011;5262;59.958;17.726;2022-12-20T10:38:14;13.90;;;8.60;;
10430;SDS011;5262;59.958;17.726;2022-12-20T10:43:22;11.80;;;8.40;;
10430;SDS011;5262;59.958;17.726;2022-12-20T10:45:56;10.33;;;8.13;;
10430;SDS011;5262;59.958;17.726;2022-12-20T10:50:55;9.93;;;7.23;;
10430;SDS011;5262;59.958;17.726;2022-12-20T10:53:22;11.87;;;8.50;;
10430;SDS011;5262;59.958;17.726;2022-12-20T10:55:50;12.23;;;8.30;;
10430;SDS011;5262;59.958;17.726;2022-12-20T11:00:52;10.93;;;7.83;;
10430;SDS011;5262;59.958;17.726;2022-12-20T11:03:47;10.00;;;7.33;;
10430;SDS011;5262;59.958;17.726;2022-12-20T11:06:20;15.03;;;8.23;;
10430;SDS011;5262;59.958;17.726;2022-12-20T11:08:48;10.53;;;7.57;;
10430;SDS011;5262;59.958;17.726;2022-12-20T11:13:48;10.10;;;7.30;;
10430;SDS011;5262;59.958;17.726;2022-12-20T11:16:37;10.27;;;7.13;;
10430;SDS011;5262;59.958;17.726;2022-12-20T11:22:01;10.70;;;7.33;;
10430;SDS011;5262;59.958;17.726;2022-12-20T11:27:51;12.80;;;8.60;;
10430;SDS011;5262;59.958;17.726;2022-12-20T11:30:27;10.73;;;7.53;;
10430;SDS011;5262;59.958;17.726;2022-12-20T11:39:16;12.83;;;7.83;;
10430;SDS011;5262;59.958;17.726;2022-12-20T11:44:48;13.43;;;7.73;;
10430;SDS011;5262;59.958;17.726;2022-12-20T11:53:26;11.23;;;7.23;;
10430;SDS011;5262;59.958;17.726;2022-12-20T11:55:55;11.47;;;7.03;;
10430;SDS011;5262;59.958;17.726;2022-12-20T11:58:25;12.00;;;7.00;;
10430;SDS011;5262;59.958;17.726;2022-12-20T12:00:57;10.07;;;7.73;;
10430;SDS011;5262;59.958;17.726;2022-12-20T12:03:29;10.57;;;6.70;;
10430;SDS011;5262;59.958;17.726;2022-12-20T12:06:44;10.60;;;6.63;;
10430;SDS011;5262;59.958;17.726;2022-12-20T12:09:11;9.33;;;7.07;;
10430;SDS011;5262;59.958;17.726;2022-12-20T12:11:37;8.90;;;6.23;;
10430;SDS011;5262;59.958;17.726;2022-12-20T12:14:09;10.60;;;6.73;;
10430;SDS011;5262;59.958;17.726;2022-12-20T12:16:46;13.83;;;6.60;;
10430;SDS011;5262;59.958;17.726;2022-12-20T12:19:17;11.47;;;6.60;;
10430;SDS011;5262;59.958;17.726;2022-12-20T12:21:46;11.47;;;6.37;;
10430;SDS011;5262;59.958;17.726;2022-12-20T12:24:24;10.07;;;6.80;;
10430;SDS011;5262;59.958;17.726;2022-12-20T12:26:54;10.70;;;6.60;;
10430;SDS011;5262;59.958;17.726;2022-12-20T12:29:22;13.10;;;6.73;;
10430;SDS011;5262;59.958;17.726;2022-12-20T12:32:07;13.00;;;6.83;;
10430;SDS011;5262;59.958;17.726;2022-12-20T12:45:42;15.60;;;7.37;;
10430;SDS011;5262;59.958;17.726;2022-12-20T12:48:21;15.43;;;8.60;;
10430;SDS011;5262;59.958;17.726;2022-12-20T12:50:56;21.17;;;9.40;;
10430;SDS011;5262;59.958;17.726;2022-12-20T12:53:36;20.37;;;8.17;;
10430;SDS011;5262;59.958;17.726;2022-12-20T13:11:50;14.73;;;7.83;;
10430;SDS011;5262;59.958;17.726;2022-12-20T13:16:49;15.40;;;10.17;;
10430;SDS011;5262;59.958;17.726;2022-12-20T13:19:28;16.20;;;8.07;;
10430;SDS011;5262;59.958;17.726;2022-12-20T13:24:34;17.77;;;8.33;;
10430;SDS011;5262;59.958;17.726;2022-12-20T13:27:23;19.43;;;10.33;;
10430;SDS011;5262;59.958;17.726;2022-12-20T13:29:50;22.17;;;11.10;;
10430;SDS011;5262;59.958;17.726;2022-12-20T13:40:24;21.53;;;11.13;;
10430;SDS011;5262;59.958;17.726;2022-12-20T13:43:23;15.90;;;9.83;;
10430;SDS011;5262;59.958;17.726;2022-12-20T13:51:11;14.17;;;9.10;;
10430;SDS011;5262;59.958;17.726;2022-12-20T13:54:26;12.90;;;9.50;;
10430;SDS011;5262;59.958;17.726;2022-12-20T13:56:42;16.10;;;9.00;;
10430;SDS011;5262;59.958;17.726;2022-12-20T13:59:19;17.73;;;9.13;;
10430;SDS011;5262;59.958;17.726;2022-12-20T14:01:51;23.83;;;12.37;;
10430;SDS011;5262;59.958;17.726;2022-12-20T14:04:20;20.17;;;10.80;;
10430;SDS011;5262;59.958;17.726;2022-12-20T14:06:52;21.03;;;11.03;;
10430;SDS011;5262;59.958;17.726;2022-12-20T14:09:34;18.67;;;11.33;;
10430;SDS011;5262;59.958;17.726;2022-12-20T14:12:14;14.13;;;9.90;;
10430;SDS011;5262;59.958;17.726;2022-12-20T14:14:42;20.83;;;9.57;;
10430;SDS011;5262;59.958;17.726;2022-12-20T14:17:30;23.63;;;10.67;;
10430;SDS011;5262;59.958;17.726;2022-12-20T14:25:54;22.87;;;10.57;;
10430;SDS011;5262;59.958;17.726;2022-12-20T14:30:55;26.10;;;10.10;;
10430;SDS011;5262;59.958;17.726;2022-12-20T14:36:06;53.20;;;23.70;;
10430;SDS011;5262;59.958;17.726;2022-12-20T14:38:33;63.30;;;27.97;;
10430;SDS011;5262;59.958;17.726;2022-12-20T14:40:58;31.90;;;16.23;;
10430;SDS011;5262;59.958;17.726;2022-12-20T14:43:31;27.67;;;14.57;;
10430;SDS011;5262;59.958;17.726;2022-12-20T14:46:14;32.07;;;11.27;;
10430;SDS011;5262;59.958;17.726;2022-12-20T14:48:42;19.53;;;10.30;;
10430;SDS011;5262;59.958;17.726;2022-12-20T14:51:08;18.77;;;10.00;;
10430;SDS011;5262;59.958;17.726;2022-12-20T14:53:34;20.93;;;11.00;;
10430;SDS011;5262;59.958;17.726;2022-12-20T14:56:01;21.13;;;10.03;;
10430;SDS011;5262;59.958;17.726;2022-12-20T14:58:28;25.03;;;11.40;;
10430;SDS011;5262;59.958;17.726;2022-12-20T15:00:59;22.30;;;10.90;;
10430;SDS011;5262;59.958;17.726;2022-12-20T15:03:27;47.77;;;11.67;;
10430;SDS011;5262;59.958;17.726;2022-12-20T15:08:27;15.60;;;9.93;;
10430;SDS011;5262;59.958;17.726;2022-12-20T15:13:46;19.93;;;10.17;;
10430;SDS011;5262;59.958;17.726;2022-12-20T15:16:29;22.03;;;11.40;;
10430;SDS011;5262;59.958;17.726;2022-12-20T15:18:56;20.23;;;10.80;;
10430;SDS011;5262;59.958;17.726;2022-12-20T15:21:27;27.80;;;11.97;;
10430;SDS011;5262;59.958;17.726;2022-12-20T15:23:58;23.70;;;10.93;;
10430;SDS011;5262;59.958;17.726;2022-12-20T15:26:26;18.43;;;9.87;;
10430;SDS011;5262;59.958;17.726;2022-12-20T15:28:53;25.70;;;11.63;;
10430;SDS011;5262;59.958;17.726;2022-12-20T15:31:20;18.93;;;10.87;;
10430;SDS011;5262;59.958;17.726;2022-12-20T15:33:48;19.23;;;9.87;;
10430;SDS011;5262;59.958;17.726;2022-12-20T15:36:16;37.30;;;10.50;;
10430;SDS011;5262;59.958;17.726;2022-12-20T15:38:43;24.17;;;13.13;;
10430;SDS011;5262;59.958;17.726;2022-12-20T15:41:25;37.30;;;22.10;;
10430;SDS011;5262;59.958;17.726;2022-12-20T15:43:56;30.17;;;16.60;;
10430;SDS011;5262;59.958;17.726;2022-12-20T15:46:22;24.40;;;11.83;;
10430;SDS011;5262;59.958;17.726;2022-12-20T15:48:48;16.80;;;9.70;;
10430;SDS011;5262;59.958;17.726;2022-12-20T15:51:18;17.50;;;10.20;;
10430;SDS011;5262;59.958;17.726;2022-12-20T15:53:56;25.93;;;11.07;;
10430;SDS011;5262;59.958;17.726;2022-12-20T15:56:23;39.20;;;10.50;;
10430;SDS011;5262;59.958;17.726;2022-12-20T15:58:50;22.87;;;9.97;;
10430;SDS011;5262;59.958;17.726;2022-12-20T16:01:23;27.20;;;10.60;;
10430;SDS011;5262;59.958;17.726;2022-12-20T16:03:55;20.60;;;9.90;;
10430;SDS011;5262;59.958;17.726;2022-12-20T16:06:21;20.27;;;9.40;;
10430;SDS011;5262;59.958;17.726;2022-12-20T16:08:47;22.57;;;9.87;;
10430;SDS011;5262;59.958;17.726;2022-12-20T16:11:21;19.63;;;8.53;;
10430;SDS011;5262;59.958;17.726;2022-12-20T16:13:48;110.30;;;13.93;;
10430;SDS011;5262;59.958;17.726;2022-12-20T16:16:17;26.90;;;9.30;;
10430;SDS011;5262;59.958;17.726;2022-12-20T16:18:45;114.60;;;15.93;;
10430;SDS011;5262;59.958;17.726;2022-12-20T16:21:15;31.83;;;9.17;;
10430;SDS011;5262;59.958;17.726;2022-12-20T16:23:43;43.10;;;9.67;;
10430;SDS011;5262;59.958;17.726;2022-12-20T16:26:15;52.80;;;10.83;;
10430;SDS011;5262;59.958;17.726;2022-12-20T16:28:44;26.77;;;9.87;;
10430;SDS011;5262;59.958;17.726;2022-12-20T16:31:28;53.77;;;9.60;;
10430;SDS011;5262;59.958;17.726;2022-12-20T16:33:55;47.50;;;10.73;;
10430;SDS011;5262;59.958;17.726;2022-12-20T16:36:22;34.07;;;10.23;;
10430;SDS011;5262;59.958;17.726;2022-12-20T16:38:48;37.77;;;9.90;;
10430;SDS011;5262;59.958;17.726;2022-12-20T16:43:48;44.77;;;11.20;;
10430;SDS011;5262;59.958;17.726;2022-12-20T16:46:16;104.17;;;15.40;;
10430;SDS011;5262;59.958;17.726;2022-12-20T16:48:43;94.50;;;14.00;;